sensor_id;sensor_type;location;lat;lon;timestamp;P1;durP1;ratioP1;P2;durP2;ratioP2
3597;SDS011;1813;52.016;8.714;2022-11-20T00:00:02;45.93;;;26.70;;
3597;SDS011;1813;52.016;8.714;2022-11-20T00:02:37;45.70;;;27.20;;
3597;SDS011;1813;52.016;8.714;2022-11-20T00:05:12;46.33;;;27.03;;
3597;SDS011;1813;52.016;8.714;2022-11-20T00:07:45;44.77;;;26.30;;
3597;SDS011;1813;52.016;8.714;2022-11-20T00:10:22;40.20;;;24.07;;
3597;SDS011;1813;52.016;8.714;2022-11-20T00:12:57;46.30;;;25.80;;
3597;SDS011;1813;52.016;8.714;2022-11-20T00:15:31;44.30;;;26.33;;
3597;SDS011;1813;52.016;8.714;2022-11-20T00:18:05;46.13;;;26.43;;
3597;SDS011;1813;52.016;8.714;2022-11-20T00:20:38;45.93;;;26.77;;
3597;SDS011;1813;52.016;8.714;2022-11-20T00:23:12;43.40;;;26.10;;
3597;SDS011;1813;52.016;8.714;2022-11-20T00:25:49;43.53;;;26.40;;
3597;SDS011;1813;52.016;8.714;2022-11-20T00:28:22;43.83;;;26.00;;
3597;SDS011;1813;52.016;8.714;2022-11-20T00:31:00;46.17;;;27.30;;
3597;SDS011;1813;52.016;8.714;2022-11-20T00:33:35;47.20;;;27.27;;
3597;SDS011;1813;52.016;8.714;2022-11-20T00:36:10;44.07;;;25.77;;
3597;SDS011;1813;52.016;8.714;2022-11-20T00:38:45;46.93;;;27.83;;
3597;SDS011;1813;52.016;8.714;2022-11-20T00:41:22;42.20;;;25.50;;
3597;SDS011;1813;52.016;8.714;2022-11-20T00:43:57;44.83;;;27.07;;
3597;SDS011;1813;52.016;8.714;2022-11-20T00:46:31;44.70;;;26.97;;
3597;SDS011;1813;52.016;8.714;2022-11-20T00:49:04;44.10;;;25.87;;
3597;SDS011;1813;52.016;8.714;2022-11-20T00:51:38;46.70;;;27.70;;
3597;SDS011;1813;52.016;8.714;2022-11-20T00:54:12;47.13;;;26.27;;
3597;SDS011;1813;52.016;8.714;2022-11-20T00:56:48;45.00;;;27.27;;
3597;SDS011;1813;52.016;8.714;2022-11-20T00:59:22;49.60;;;29.47;;
3597;SDS011;1813;52.016;8.714;2022-11-20T01:01:56;55.13;;;31.17;;
3597;SDS011;1813;52.016;8.714;2022-11-20T01:04:29;50.10;;;30.17;;
3597;SDS011;1813;52.016;8.714;2022-11-20T01:07:03;51.77;;;30.60;;
3597;SDS011;1813;52.016;8.714;2022-11-20T01:09:37;50.57;;;29.90;;
3597;SDS011;1813;52.016;8.714;2022-11-20T01:12:13;52.90;;;29.63;;
3597;SDS011;1813;52.016;8.714;2022-11-20T01:14:47;52.73;;;29.40;;
3597;SDS011;1813;52.016;8.714;2022-11-20T01:17:21;51.57;;;30.20;;
3597;SDS011;1813;52.016;8.714;2022-11-20T01:19:55;56.10;;;30.50;;
3597;SDS011;1813;52.016;8.714;2022-11-20T01:22:28;50.80;;;30.33;;
3597;SDS011;1813;52.016;8.714;2022-11-20T01:25:02;57.23;;;30.77;;
3597;SDS011;1813;52.016;8.714;2022-11-20T01:27:39;47.03;;;27.20;;
3597;SDS011;1813;52.016;8.714;2022-11-20T01:30:13;46.47;;;27.00;;
3597;SDS011;1813;52.016;8.714;2022-11-20T01:32:47;44.43;;;26.30;;
3597;SDS011;1813;52.016;8.714;2022-11-20T01:35:21;45.07;;;27.20;;
3597;SDS011;1813;52.016;8.714;2022-11-20T01:37:55;41.80;;;26.10;;
3597;SDS011;1813;52.016;8.714;2022-11-20T01:40:28;45.03;;;25.63;;
3597;SDS011;1813;52.016;8.714;2022-11-20T01:43:09;43.93;;;26.87;;
3597;SDS011;1813;52.016;8.714;2022-11-20T01:45:56;48.20;;;26.47;;
3597;SDS011;1813;52.016;8.714;2022-11-20T01:48:37;44.83;;;26.00;;
3597;SDS011;1813;52.016;8.714;2022-11-20T01:51:17;41.60;;;25.57;;
3597;SDS011;1813;52.016;8.714;2022-11-20T01:53:56;46.63;;;26.70;;
3597;SDS011;1813;52.016;8.714;2022-11-20T01:56:35;42.60;;;25.03;;
3597;SDS011;1813;52.016;8.714;2022-11-20T01:59:14;41.80;;;24.57;;
3597;SDS011;1813;52.016;8.714;2022-11-20T02:01:51;40.77;;;24.90;;
3597;SDS011;1813;52.016;8.714;2022-11-20T02:04:25;38.43;;;24.40;;
3597;SDS011;1813;52.016;8.714;2022-11-20T02:06:59;42.73;;;24.47;;
3597;SDS011;1813;52.016;8.714;2022-11-20T02:09:35;42.77;;;24.60;;
3597;SDS011;1813;52.016;8.714;2022-11-20T02:12:08;44.07;;;24.27;;
3597;SDS011;1813;52.016;8.714;2022-11-20T02:15:05;42.97;;;25.27;;
3597;SDS011;1813;52.016;8.714;2022-11-20T02:17:37;42.20;;;24.70;;
3597;SDS011;1813;52.016;8.714;2022-11-20T02:20:11;42.67;;;25.10;;
3597;SDS011;1813;52.016;8.714;2022-11-20T02:22:47;43.33;;;25.53;;
3597;SDS011;1813;52.016;8.714;2022-11-20T02:25:30;38.83;;;23.47;;
3597;SDS011;1813;52.016;8.714;2022-11-20T02:28:06;43.30;;;24.43;;
3597;SDS011;1813;52.016;8.714;2022-11-20T02:30:39;37.40;;;23.27;;
3597;SDS011;1813;52.016;8.714;2022-11-20T02:33:13;46.40;;;23.40;;
3597;SDS011;1813;52.016;8.714;2022-11-20T02:35:47;40.17;;;23.73;;
3597;SDS011;1813;52.016;8.714;2022-11-20T02:38:21;37.80;;;23.17;;
3597;SDS011;1813;52.016;8.714;2022-11-20T02:40:57;42.47;;;24.00;;
3597;SDS011;1813;52.016;8.714;2022-11-20T02:43:31;44.47;;;24.53;;
3597;SDS011;1813;52.016;8.714;2022-11-20T02:46:06;42.17;;;25.40;;
3597;SDS011;1813;52.016;8.714;2022-11-20T02:48:40;42.13;;;23.73;;
3597;SDS011;1813;52.016;8.714;2022-11-20T02:51:14;43.63;;;25.10;;
3597;SDS011;1813;52.016;8.714;2022-11-20T02:53:48;43.80;;;25.43;;
3597;SDS011;1813;52.016;8.714;2022-11-20T02:56:24;42.93;;;24.93;;
3597;SDS011;1813;52.016;8.714;2022-11-20T02:58:58;40.47;;;24.83;;
3597;SDS011;1813;52.016;8.714;2022-11-20T03:01:32;35.90;;;22.10;;
3597;SDS011;1813;52.016;8.714;2022-11-20T03:04:06;46.17;;;23.43;;
3597;SDS011;1813;52.016;8.714;2022-11-20T03:06:40;39.00;;;23.73;;
3597;SDS011;1813;52.016;8.714;2022-11-20T03:09:14;39.83;;;23.07;;
3597;SDS011;1813;52.016;8.714;2022-11-20T03:11:50;41.00;;;22.57;;
3597;SDS011;1813;52.016;8.714;2022-11-20T03:14:24;39.43;;;23.40;;
3597;SDS011;1813;52.016;8.714;2022-11-20T03:16:58;38.03;;;23.03;;
3597;SDS011;1813;52.016;8.714;2022-11-20T03:19:33;39.27;;;22.97;;
3597;SDS011;1813;52.016;8.714;2022-11-20T03:22:07;38.90;;;22.73;;
3597;SDS011;1813;52.016;8.714;2022-11-20T03:24:41;38.67;;;22.83;;
3597;SDS011;1813;52.016;8.714;2022-11-20T03:27:17;43.03;;;23.37;;
3597;SDS011;1813;52.016;8.714;2022-11-20T03:29:51;35.60;;;21.90;;
3597;SDS011;1813;52.016;8.714;2022-11-20T03:32:25;39.90;;;23.70;;
3597;SDS011;1813;52.016;8.714;2022-11-20T03:34:58;40.10;;;22.97;;
3597;SDS011;1813;52.016;8.714;2022-11-20T03:37:32;40.20;;;23.60;;
3597;SDS011;1813;52.016;8.714;2022-11-20T03:40:06;37.93;;;22.47;;
3597;SDS011;1813;52.016;8.714;2022-11-20T03:42:43;35.43;;;22.30;;
3597;SDS011;1813;52.016;8.714;2022-11-20T03:45:20;33.83;;;21.13;;
3597;SDS011;1813;52.016;8.714;2022-11-20T03:47:54;37.60;;;22.80;;
3597;SDS011;1813;52.016;8.714;2022-11-20T03:50:27;35.47;;;22.00;;
3597;SDS011;1813;52.016;8.714;2022-11-20T03:53:01;36.60;;;20.90;;
3597;SDS011;1813;52.016;8.714;2022-11-20T03:55:35;36.17;;;21.07;;
3597;SDS011;1813;52.016;8.714;2022-11-20T03:58:11;38.10;;;21.83;;
3597;SDS011;1813;52.016;8.714;2022-11-20T04:00:45;33.07;;;21.10;;
3597;SDS011;1813;52.016;8.714;2022-11-20T04:03:19;38.53;;;21.80;;
3597;SDS011;1813;52.016;8.714;2022-11-20T04:05:53;33.90;;;20.80;;
3597;SDS011;1813;52.016;8.714;2022-11-20T04:08:27;33.77;;;20.70;;
3597;SDS011;1813;52.016;8.714;2022-11-20T04:11:08;35.53;;;21.50;;
3597;SDS011;1813;52.016;8.714;2022-11-20T04:13:46;35.97;;;21.57;;
3597;SDS011;1813;52.016;8.714;2022-11-20T04:16:22;36.53;;;21.73;;
3597;SDS011;1813;52.016;8.714;2022-11-20T04:18:58;35.70;;;21.73;;
3597;SDS011;1813;52.016;8.714;2022-11-20T04:21:33;33.70;;;20.43;;
3597;SDS011;1813;52.016;8.714;2022-11-20T04:24:07;35.20;;;20.90;;
3597;SDS011;1813;52.016;8.714;2022-11-20T04:26:41;35.70;;;21.17;;
3597;SDS011;1813;52.016;8.714;2022-11-20T04:29:18;35.40;;;21.10;;
3597;SDS011;1813;52.016;8.714;2022-11-20T04:31:51;35.17;;;20.80;;
3597;SDS011;1813;52.016;8.714;2022-11-20T04:34:25;31.87;;;19.13;;
3597;SDS011;1813;52.016;8.714;2022-11-20T04:36:59;36.07;;;21.30;;
3597;SDS011;1813;52.016;8.714;2022-11-20T04:39:33;33.27;;;20.73;;
3597;SDS011;1813;52.016;8.714;2022-11-20T04:42:08;40.47;;;20.70;;
3597;SDS011;1813;52.016;8.714;2022-11-20T04:44:56;32.73;;;20.50;;
3597;SDS011;1813;52.016;8.714;2022-11-20T04:47:30;32.20;;;20.13;;
3597;SDS011;1813;52.016;8.714;2022-11-20T04:50:04;33.97;;;20.90;;
3597;SDS011;1813;52.016;8.714;2022-11-20T04:52:39;33.17;;;20.73;;
3597;SDS011;1813;52.016;8.714;2022-11-20T04:55:13;35.20;;;21.07;;
3597;SDS011;1813;52.016;8.714;2022-11-20T04:57:49;36.00;;;20.80;;
3597;SDS011;1813;52.016;8.714;2022-11-20T05:00:26;35.23;;;21.00;;
3597;SDS011;1813;52.016;8.714;2022-11-20T05:02:59;34.03;;;20.40;;
3597;SDS011;1813;52.016;8.714;2022-11-20T05:05:33;30.07;;;18.40;;
3597;SDS011;1813;52.016;8.714;2022-11-20T05:08:07;31.57;;;19.43;;
3597;SDS011;1813;52.016;8.714;2022-11-20T05:10:41;29.23;;;18.50;;
3597;SDS011;1813;52.016;8.714;2022-11-20T05:13:15;32.63;;;19.30;;
3597;SDS011;1813;52.016;8.714;2022-11-20T05:15:51;30.77;;;18.67;;
3597;SDS011;1813;52.016;8.714;2022-11-20T05:18:25;34.87;;;19.90;;
3597;SDS011;1813;52.016;8.714;2022-11-20T05:20:59;30.77;;;19.00;;
3597;SDS011;1813;52.016;8.714;2022-11-20T05:23:33;36.40;;;19.70;;
3597;SDS011;1813;52.016;8.714;2022-11-20T05:26:08;30.40;;;19.27;;
3597;SDS011;1813;52.016;8.714;2022-11-20T05:28:46;33.03;;;19.60;;
3597;SDS011;1813;52.016;8.714;2022-11-20T05:31:23;31.13;;;18.63;;
3597;SDS011;1813;52.016;8.714;2022-11-20T05:33:58;31.07;;;19.47;;
3597;SDS011;1813;52.016;8.714;2022-11-20T05:36:31;29.53;;;18.70;;
3597;SDS011;1813;52.016;8.714;2022-11-20T05:39:05;29.50;;;19.20;;
3597;SDS011;1813;52.016;8.714;2022-11-20T05:41:40;30.60;;;19.30;;
3597;SDS011;1813;52.016;8.714;2022-11-20T05:44:14;32.40;;;19.47;;
3597;SDS011;1813;52.016;8.714;2022-11-20T05:46:50;32.07;;;18.63;;
3597;SDS011;1813;52.016;8.714;2022-11-20T05:49:24;32.17;;;19.73;;
3597;SDS011;1813;52.016;8.714;2022-11-20T05:51:57;31.53;;;19.73;;
3597;SDS011;1813;52.016;8.714;2022-11-20T05:54:32;30.83;;;18.80;;
3597;SDS011;1813;52.016;8.714;2022-11-20T05:57:05;28.20;;;17.83;;
3597;SDS011;1813;52.016;8.714;2022-11-20T05:59:39;34.67;;;20.20;;
3597;SDS011;1813;52.016;8.714;2022-11-20T06:02:15;32.73;;;20.10;;
3597;SDS011;1813;52.016;8.714;2022-11-20T06:04:49;36.07;;;22.17;;
3597;SDS011;1813;52.016;8.714;2022-11-20T06:07:23;34.07;;;20.47;;
3597;SDS011;1813;52.016;8.714;2022-11-20T06:10:00;36.20;;;22.10;;
3597;SDS011;1813;52.016;8.714;2022-11-20T06:12:33;37.80;;;21.90;;
3597;SDS011;1813;52.016;8.714;2022-11-20T06:15:08;33.50;;;20.80;;
3597;SDS011;1813;52.016;8.714;2022-11-20T06:17:45;35.77;;;21.03;;
3597;SDS011;1813;52.016;8.714;2022-11-20T06:20:19;37.93;;;21.77;;
3597;SDS011;1813;52.016;8.714;2022-11-20T06:22:53;32.43;;;20.23;;
3597;SDS011;1813;52.016;8.714;2022-11-20T06:25:27;34.93;;;21.47;;
3597;SDS011;1813;52.016;8.714;2022-11-20T06:28:00;31.60;;;20.30;;
3597;SDS011;1813;52.016;8.714;2022-11-20T06:30:34;35.50;;;21.20;;
3597;SDS011;1813;52.016;8.714;2022-11-20T06:33:11;33.80;;;21.23;;
3597;SDS011;1813;52.016;8.714;2022-11-20T06:35:44;35.17;;;21.53;;
3597;SDS011;1813;52.016;8.714;2022-11-20T06:38:18;33.50;;;20.43;;
3597;SDS011;1813;52.016;8.714;2022-11-20T06:40:52;34.67;;;21.47;;
3597;SDS011;1813;52.016;8.714;2022-11-20T06:43:28;33.40;;;20.80;;
3597;SDS011;1813;52.016;8.714;2022-11-20T06:46:02;30.77;;;19.63;;
3597;SDS011;1813;52.016;8.714;2022-11-20T06:48:38;37.43;;;20.47;;
3597;SDS011;1813;52.016;8.714;2022-11-20T06:51:12;34.27;;;20.70;;
3597;SDS011;1813;52.016;8.714;2022-11-20T06:53:46;32.17;;;20.70;;
3597;SDS011;1813;52.016;8.714;2022-11-20T06:56:20;33.20;;;20.80;;
3597;SDS011;1813;52.016;8.714;2022-11-20T06:58:54;32.53;;;19.97;;
3597;SDS011;1813;52.016;8.714;2022-11-20T07:01:28;32.57;;;20.93;;
3597;SDS011;1813;52.016;8.714;2022-11-20T07:04:04;32.73;;;20.40;;
3597;SDS011;1813;52.016;8.714;2022-11-20T07:06:38;36.73;;;20.67;;
3597;SDS011;1813;52.016;8.714;2022-11-20T07:09:14;34.33;;;21.07;;
3597;SDS011;1813;52.016;8.714;2022-11-20T07:11:48;35.57;;;21.80;;
3597;SDS011;1813;52.016;8.714;2022-11-20T07:14:21;33.60;;;21.33;;
3597;SDS011;1813;52.016;8.714;2022-11-20T07:16:55;30.33;;;18.70;;
3597;SDS011;1813;52.016;8.714;2022-11-20T07:19:31;31.33;;;19.30;;
3597;SDS011;1813;52.016;8.714;2022-11-20T07:22:05;33.60;;;21.00;;
3597;SDS011;1813;52.016;8.714;2022-11-20T07:24:39;35.03;;;20.27;;
3597;SDS011;1813;52.016;8.714;2022-11-20T07:27:13;32.90;;;21.10;;
3597;SDS011;1813;52.016;8.714;2022-11-20T07:29:46;34.47;;;20.03;;
3597;SDS011;1813;52.016;8.714;2022-11-20T07:32:20;32.40;;;19.60;;
3597;SDS011;1813;52.016;8.714;2022-11-20T07:34:57;34.27;;;21.53;;
3597;SDS011;1813;52.016;8.714;2022-11-20T07:37:30;41.40;;;23.60;;
3597;SDS011;1813;52.016;8.714;2022-11-20T07:40:07;40.87;;;24.07;;
3597;SDS011;1813;52.016;8.714;2022-11-20T07:42:46;37.70;;;22.60;;
3597;SDS011;1813;52.016;8.714;2022-11-20T07:45:21;39.60;;;23.17;;
3597;SDS011;1813;52.016;8.714;2022-11-20T07:47:56;35.33;;;21.30;;
3597;SDS011;1813;52.016;8.714;2022-11-20T07:50:33;35.37;;;22.13;;
3597;SDS011;1813;52.016;8.714;2022-11-20T07:53:07;37.67;;;23.50;;
3597;SDS011;1813;52.016;8.714;2022-11-20T07:55:40;35.93;;;22.17;;
3597;SDS011;1813;52.016;8.714;2022-11-20T07:58:14;31.80;;;20.03;;
3597;SDS011;1813;52.016;8.714;2022-11-20T08:00:48;34.00;;;20.60;;
3597;SDS011;1813;52.016;8.714;2022-11-20T08:03:22;33.10;;;20.70;;
3597;SDS011;1813;52.016;8.714;2022-11-20T08:06:00;38.97;;;23.30;;
3597;SDS011;1813;52.016;8.714;2022-11-20T08:08:35;40.30;;;23.93;;
3597;SDS011;1813;52.016;8.714;2022-11-20T08:11:09;49.03;;;27.27;;
3597;SDS011;1813;52.016;8.714;2022-11-20T08:13:55;46.07;;;28.17;;
3597;SDS011;1813;52.016;8.714;2022-11-20T08:16:42;50.10;;;28.80;;
3597;SDS011;1813;52.016;8.714;2022-11-20T08:19:17;40.03;;;24.60;;
3597;SDS011;1813;52.016;8.714;2022-11-20T08:21:54;39.70;;;24.10;;
3597;SDS011;1813;52.016;8.714;2022-11-20T08:24:28;42.20;;;22.30;;
3597;SDS011;1813;52.016;8.714;2022-11-20T08:27:02;37.00;;;22.13;;
3597;SDS011;1813;52.016;8.714;2022-11-20T08:29:36;35.37;;;21.30;;
3597;SDS011;1813;52.016;8.714;2022-11-20T08:32:10;34.53;;;21.90;;
3597;SDS011;1813;52.016;8.714;2022-11-20T08:34:43;31.27;;;20.57;;
3597;SDS011;1813;52.016;8.714;2022-11-20T08:37:20;33.00;;;21.10;;
3597;SDS011;1813;52.016;8.714;2022-11-20T08:39:53;36.20;;;21.50;;
3597;SDS011;1813;52.016;8.714;2022-11-20T08:42:27;32.93;;;19.97;;
3597;SDS011;1813;52.016;8.714;2022-11-20T08:45:01;33.30;;;20.10;;
3597;SDS011;1813;52.016;8.714;2022-11-20T08:47:35;29.73;;;18.63;;
3597;SDS011;1813;52.016;8.714;2022-11-20T08:50:09;32.73;;;18.47;;
3597;SDS011;1813;52.016;8.714;2022-11-20T08:52:45;33.50;;;20.90;;
3597;SDS011;1813;52.016;8.714;2022-11-20T08:55:19;31.70;;;19.70;;
3597;SDS011;1813;52.016;8.714;2022-11-20T08:57:53;35.13;;;21.33;;
3597;SDS011;1813;52.016;8.714;2022-11-20T09:00:27;31.30;;;20.20;;
3597;SDS011;1813;52.016;8.714;2022-11-20T09:03:00;36.10;;;21.07;;
3597;SDS011;1813;52.016;8.714;2022-11-20T09:05:34;33.27;;;21.30;;
3597;SDS011;1813;52.016;8.714;2022-11-20T09:08:11;38.03;;;21.67;;
3597;SDS011;1813;52.016;8.714;2022-11-20T09:10:44;33.30;;;20.60;;
3597;SDS011;1813;52.016;8.714;2022-11-20T09:13:18;28.80;;;18.87;;
3597;SDS011;1813;52.016;8.714;2022-11-20T09:15:52;25.60;;;15.60;;
3597;SDS011;1813;52.016;8.714;2022-11-20T09:18:28;22.23;;;14.90;;
3597;SDS011;1813;52.016;8.714;2022-11-20T09:21:04;21.20;;;14.37;;
3597;SDS011;1813;52.016;8.714;2022-11-20T09:23:43;21.90;;;14.00;;
3597;SDS011;1813;52.016;8.714;2022-11-20T09:26:17;17.97;;;12.73;;
3597;SDS011;1813;52.016;8.714;2022-11-20T09:28:50;20.23;;;13.67;;
3597;SDS011;1813;52.016;8.714;2022-11-20T09:31:24;24.43;;;14.13;;
3597;SDS011;1813;52.016;8.714;2022-11-20T09:33:59;17.23;;;12.00;;
3597;SDS011;1813;52.016;8.714;2022-11-20T09:36:32;17.67;;;12.07;;
3597;SDS011;1813;52.016;8.714;2022-11-20T09:39:09;19.53;;;13.57;;
3597;SDS011;1813;52.016;8.714;2022-11-20T09:41:58;20.33;;;12.53;;
3597;SDS011;1813;52.016;8.714;2022-11-20T09:44:48;23.67;;;13.40;;
3597;SDS011;1813;52.016;8.714;2022-11-20T09:47:30;19.23;;;12.60;;
3597;SDS011;1813;52.016;8.714;2022-11-20T09:50:22;18.07;;;12.97;;
3597;SDS011;1813;52.016;8.714;2022-11-20T09:53:08;17.67;;;12.03;;
3597;SDS011;1813;52.016;8.714;2022-11-20T09:55:49;19.33;;;13.27;;
3597;SDS011;1813;52.016;8.714;2022-11-20T09:58:25;18.93;;;12.60;;
3597;SDS011;1813;52.016;8.714;2022-11-20T10:01:07;17.50;;;12.20;;
3597;SDS011;1813;52.016;8.714;2022-11-20T10:03:48;17.80;;;12.47;;
3597;SDS011;1813;52.016;8.714;2022-11-20T10:06:29;20.53;;;12.50;;
3597;SDS011;1813;52.016;8.714;2022-11-20T10:09:06;17.80;;;12.37;;
3597;SDS011;1813;52.016;8.714;2022-11-20T10:11:55;18.40;;;12.33;;
3597;SDS011;1813;52.016;8.714;2022-11-20T10:14:44;17.30;;;12.40;;
3597;SDS011;1813;52.016;8.714;2022-11-20T10:17:31;18.97;;;13.10;;
3597;SDS011;1813;52.016;8.714;2022-11-20T10:20:22;22.50;;;12.83;;
3597;SDS011;1813;52.016;8.714;2022-11-20T10:23:08;21.93;;;13.83;;
3597;SDS011;1813;52.016;8.714;2022-11-20T10:26:03;19.23;;;13.07;;
3597;SDS011;1813;52.016;8.714;2022-11-20T10:28:52;21.37;;;13.80;;
3597;SDS011;1813;52.016;8.714;2022-11-20T10:31:39;19.30;;;12.97;;
3597;SDS011;1813;52.016;8.714;2022-11-20T10:34:18;19.70;;;12.70;;
3597;SDS011;1813;52.016;8.714;2022-11-20T10:36:56;20.57;;;13.10;;
3597;SDS011;1813;52.016;8.714;2022-11-20T10:39:35;20.37;;;13.90;;
3597;SDS011;1813;52.016;8.714;2022-11-20T10:42:14;19.17;;;13.07;;
3597;SDS011;1813;52.016;8.714;2022-11-20T10:44:56;18.50;;;12.40;;
3597;SDS011;1813;52.016;8.714;2022-11-20T10:47:43;17.43;;;12.20;;
3597;SDS011;1813;52.016;8.714;2022-11-20T10:50:18;17.20;;;11.67;;
3597;SDS011;1813;52.016;8.714;2022-11-20T10:52:56;16.47;;;11.57;;
3597;SDS011;1813;52.016;8.714;2022-11-20T10:55:39;18.20;;;11.23;;
3597;SDS011;1813;52.016;8.714;2022-11-20T10:58:17;17.13;;;11.40;;
3597;SDS011;1813;52.016;8.714;2022-11-20T11:01:05;17.70;;;11.67;;
3597;SDS011;1813;52.016;8.714;2022-11-20T11:03:47;14.13;;;9.63;;
3597;SDS011;1813;52.016;8.714;2022-11-20T11:06:23;11.50;;;8.60;;
3597;SDS011;1813;52.016;8.714;2022-11-20T11:09:03;13.13;;;9.83;;
3597;SDS011;1813;52.016;8.714;2022-11-20T11:11:44;13.50;;;9.20;;
3597;SDS011;1813;52.016;8.714;2022-11-20T11:14:18;12.70;;;9.10;;
3597;SDS011;1813;52.016;8.714;2022-11-20T11:16:57;11.63;;;8.80;;
3597;SDS011;1813;52.016;8.714;2022-11-20T11:19:31;12.30;;;9.03;;
3597;SDS011;1813;52.016;8.714;2022-11-20T11:22:05;13.90;;;9.40;;
3597;SDS011;1813;52.016;8.714;2022-11-20T11:24:51;13.10;;;9.63;;
3597;SDS011;1813;52.016;8.714;2022-11-20T11:27:26;12.00;;;8.97;;
3597;SDS011;1813;52.016;8.714;2022-11-20T11:30:11;12.03;;;8.97;;
3597;SDS011;1813;52.016;8.714;2022-11-20T11:32:49;14.23;;;9.10;;
3597;SDS011;1813;52.016;8.714;2022-11-20T11:35:24;12.43;;;8.70;;
3597;SDS011;1813;52.016;8.714;2022-11-20T11:38:03;12.50;;;9.17;;
3597;SDS011;1813;52.016;8.714;2022-11-20T11:40:45;15.37;;;9.43;;
3597;SDS011;1813;52.016;8.714;2022-11-20T11:43:21;14.40;;;9.27;;
3597;SDS011;1813;52.016;8.714;2022-11-20T11:46:20;11.80;;;8.60;;
3597;SDS011;1813;52.016;8.714;2022-11-20T11:49:13;11.20;;;8.27;;
3597;SDS011;1813;52.016;8.714;2022-11-20T11:51:55;12.93;;;8.90;;
3597;SDS011;1813;52.016;8.714;2022-11-20T11:54:35;13.93;;;8.43;;
3597;SDS011;1813;52.016;8.714;2022-11-20T11:57:15;11.23;;;8.33;;
3597;SDS011;1813;52.016;8.714;2022-11-20T11:59:57;15.93;;;10.70;;
3597;SDS011;1813;52.016;8.714;2022-11-20T12:02:36;16.63;;;10.10;;
3597;SDS011;1813;52.016;8.714;2022-11-20T12:05:21;11.07;;;7.57;;
3597;SDS011;1813;52.016;8.714;2022-11-20T12:07:58;12.30;;;8.57;;
3597;SDS011;1813;52.016;8.714;2022-11-20T12:10:38;12.60;;;9.27;;
3597;SDS011;1813;52.016;8.714;2022-11-20T12:13:26;12.57;;;8.90;;
3597;SDS011;1813;52.016;8.714;2022-11-20T12:16:10;11.93;;;9.10;;
3597;SDS011;1813;52.016;8.714;2022-11-20T12:18:47;12.30;;;8.97;;
3597;SDS011;1813;52.016;8.714;2022-11-20T12:21:28;10.40;;;7.90;;
3597;SDS011;1813;52.016;8.714;2022-11-20T12:27:28;12.53;;;8.70;;
3597;SDS011;1813;52.016;8.714;2022-11-20T12:30:16;13.33;;;8.93;;
3597;SDS011;1813;52.016;8.714;2022-11-20T12:33:02;14.00;;;9.40;;
3597;SDS011;1813;52.016;8.714;2022-11-20T12:36:00;12.47;;;8.73;;
3597;SDS011;1813;52.016;8.714;2022-11-20T12:41:51;13.87;;;9.80;;
3597;SDS011;1813;52.016;8.714;2022-11-20T12:45:03;14.20;;;9.70;;
3597;SDS011;1813;52.016;8.714;2022-11-20T12:47:55;15.73;;;9.77;;
3597;SDS011;1813;52.016;8.714;2022-11-20T12:50:50;14.13;;;9.27;;
3597;SDS011;1813;52.016;8.714;2022-11-20T12:53:36;14.00;;;8.83;;
3597;SDS011;1813;52.016;8.714;2022-11-20T12:56:21;12.27;;;8.63;;
3597;SDS011;1813;52.016;8.714;2022-11-20T12:59:10;13.90;;;9.07;;
3597;SDS011;1813;52.016;8.714;2022-11-20T13:01:58;13.63;;;9.60;;
3597;SDS011;1813;52.016;8.714;2022-11-20T13:04:47;13.80;;;9.10;;
3597;SDS011;1813;52.016;8.714;2022-11-20T13:07:33;13.50;;;9.20;;
3597;SDS011;1813;52.016;8.714;2022-11-20T13:10:13;13.83;;;9.50;;
3597;SDS011;1813;52.016;8.714;2022-11-20T13:12:59;13.17;;;9.10;;
3597;SDS011;1813;52.016;8.714;2022-11-20T13:15:43;14.20;;;9.23;;
3597;SDS011;1813;52.016;8.714;2022-11-20T13:18:24;12.50;;;8.53;;
3597;SDS011;1813;52.016;8.714;2022-11-20T13:20:59;12.70;;;8.87;;
3597;SDS011;1813;52.016;8.714;2022-11-20T13:23:32;13.80;;;10.10;;
3597;SDS011;1813;52.016;8.714;2022-11-20T13:26:14;14.80;;;9.37;;
3597;SDS011;1813;52.016;8.714;2022-11-20T13:29:02;16.60;;;10.37;;
3597;SDS011;1813;52.016;8.714;2022-11-20T13:31:42;15.80;;;10.27;;
3597;SDS011;1813;52.016;8.714;2022-11-20T13:34:22;16.03;;;10.27;;
3597;SDS011;1813;52.016;8.714;2022-11-20T13:36:58;16.57;;;11.10;;
3597;SDS011;1813;52.016;8.714;2022-11-20T13:39:34;17.73;;;11.70;;
3597;SDS011;1813;52.016;8.714;2022-11-20T13:42:20;16.00;;;10.53;;
3597;SDS011;1813;52.016;8.714;2022-11-20T13:45:08;18.10;;;11.93;;
3597;SDS011;1813;52.016;8.714;2022-11-20T13:47:47;17.43;;;11.70;;
3597;SDS011;1813;52.016;8.714;2022-11-20T13:50:32;17.50;;;11.20;;
3597;SDS011;1813;52.016;8.714;2022-11-20T13:53:19;19.30;;;11.53;;
3597;SDS011;1813;52.016;8.714;2022-11-20T13:56:15;25.00;;;12.40;;
3597;SDS011;1813;52.016;8.714;2022-11-20T13:58:59;16.40;;;10.70;;
3597;SDS011;1813;52.016;8.714;2022-11-20T14:01:42;16.37;;;11.50;;
3597;SDS011;1813;52.016;8.714;2022-11-20T14:04:19;18.23;;;11.70;;
3597;SDS011;1813;52.016;8.714;2022-11-20T14:07:00;17.77;;;11.60;;
3597;SDS011;1813;52.016;8.714;2022-11-20T14:09:34;19.07;;;12.27;;
3597;SDS011;1813;52.016;8.714;2022-11-20T14:12:14;23.00;;;14.00;;
3597;SDS011;1813;52.016;8.714;2022-11-20T14:14:50;21.23;;;14.10;;
3597;SDS011;1813;52.016;8.714;2022-11-20T14:17:32;21.70;;;13.90;;
3597;SDS011;1813;52.016;8.714;2022-11-20T14:20:11;23.33;;;14.10;;
3597;SDS011;1813;52.016;8.714;2022-11-20T14:22:53;22.17;;;14.40;;
3597;SDS011;1813;52.016;8.714;2022-11-20T14:25:28;24.20;;;15.30;;
3597;SDS011;1813;52.016;8.714;2022-11-20T14:28:02;24.77;;;15.73;;
3597;SDS011;1813;52.016;8.714;2022-11-20T14:30:38;25.50;;;15.40;;
3597;SDS011;1813;52.016;8.714;2022-11-20T14:33:20;28.00;;;15.13;;
3597;SDS011;1813;52.016;8.714;2022-11-20T14:35:57;25.90;;;15.67;;
3597;SDS011;1813;52.016;8.714;2022-11-20T14:38:31;24.73;;;15.70;;
3597;SDS011;1813;52.016;8.714;2022-11-20T14:41:06;25.00;;;15.60;;
3597;SDS011;1813;52.016;8.714;2022-11-20T14:43:40;23.73;;;15.67;;
3597;SDS011;1813;52.016;8.714;2022-11-20T14:46:19;25.40;;;15.70;;
3597;SDS011;1813;52.016;8.714;2022-11-20T14:48:56;24.70;;;16.37;;
3597;SDS011;1813;52.016;8.714;2022-11-20T14:51:34;29.33;;;17.50;;
3597;SDS011;1813;52.016;8.714;2022-11-20T14:54:12;31.63;;;17.00;;
3597;SDS011;1813;52.016;8.714;2022-11-20T14:56:53;29.13;;;16.80;;
3597;SDS011;1813;52.016;8.714;2022-11-20T14:59:28;29.60;;;18.10;;
3597;SDS011;1813;52.016;8.714;2022-11-20T15:02:04;30.07;;;18.50;;
3597;SDS011;1813;52.016;8.714;2022-11-20T15:04:47;31.40;;;18.03;;
3597;SDS011;1813;52.016;8.714;2022-11-20T15:07:25;29.90;;;17.40;;
3597;SDS011;1813;52.016;8.714;2022-11-20T15:10:03;31.20;;;18.80;;
3597;SDS011;1813;52.016;8.714;2022-11-20T15:12:46;32.63;;;18.23;;
3597;SDS011;1813;52.016;8.714;2022-11-20T15:15:24;26.90;;;18.10;;
3597;SDS011;1813;52.016;8.714;2022-11-20T15:18:10;30.77;;;18.00;;
3597;SDS011;1813;52.016;8.714;2022-11-20T15:20:55;28.47;;;17.57;;
3597;SDS011;1813;52.016;8.714;2022-11-20T15:23:32;33.43;;;20.23;;
3597;SDS011;1813;52.016;8.714;2022-11-20T15:26:08;51.23;;;28.20;;
3597;SDS011;1813;52.016;8.714;2022-11-20T15:28:46;32.93;;;18.77;;
3597;SDS011;1813;52.016;8.714;2022-11-20T15:31:24;31.10;;;19.47;;
3597;SDS011;1813;52.016;8.714;2022-11-20T15:33:58;31.00;;;18.60;;
3597;SDS011;1813;52.016;8.714;2022-11-20T15:36:34;31.27;;;18.10;;
3597;SDS011;1813;52.016;8.714;2022-11-20T15:39:08;30.23;;;18.57;;
3597;SDS011;1813;52.016;8.714;2022-11-20T15:41:43;30.47;;;17.47;;
3597;SDS011;1813;52.016;8.714;2022-11-20T15:44:17;33.20;;;19.50;;
3597;SDS011;1813;52.016;8.714;2022-11-20T15:46:50;36.43;;;19.53;;
3597;SDS011;1813;52.016;8.714;2022-11-20T15:49:24;29.30;;;17.53;;
3597;SDS011;1813;52.016;8.714;2022-11-20T15:52:01;30.30;;;18.73;;
3597;SDS011;1813;52.016;8.714;2022-11-20T15:54:35;30.73;;;18.93;;
3597;SDS011;1813;52.016;8.714;2022-11-20T15:57:09;31.67;;;18.87;;